createdAt,value
2022-10-22T00:00:48.159Z,99.99
2022-10-22T00:01:48.170Z,99.99
2022-10-22T00:02:48.224Z,99.99
2022-10-22T00:03:48.192Z,99.99
2022-10-22T00:04:48.237Z,99.99
2022-10-22T00:05:48.215Z,99.99
2022-10-22T00:06:48.229Z,99.98
2022-10-22T00:07:48.237Z,98.93
2022-10-22T00:08:48.302Z,97.22
2022-10-22T00:09:48.262Z,95.60
2022-10-22T00:10:48.276Z,94.08
2022-10-22T00:11:48.386Z,93.70
2022-10-22T00:12:48.297Z,92.75
2022-10-22T00:13:48.352Z,93.13
2022-10-22T00:14:48.320Z,93.41
2022-10-22T00:15:48.334Z,94.37
2022-10-22T00:16:48.347Z,94.65
2022-10-22T00:17:48.354Z,95.51
2022-10-22T00:18:48.372Z,97.22
2022-10-22T00:19:48.375Z,99.99
2022-10-22T00:20:48.407Z,99.99
2022-10-22T00:21:48.402Z,99.99
2022-10-22T00:22:48.467Z,99.99
2022-10-22T00:23:48.423Z,99.99
2022-10-22T00:24:48.435Z,99.99
2022-10-22T00:25:48.445Z,99.99
2022-10-22T00:26:48.457Z,99.99
2022-10-22T00:27:48.479Z,99.99
2022-10-22T00:28:48.480Z,99.99
2022-10-22T00:29:48.491Z,99.99
2022-10-22T00:30:48.507Z,99.99
2022-10-22T00:31:48.555Z,99.99
2022-10-22T00:32:48.529Z,99.99
2022-10-22T00:33:48.538Z,99.99
2022-10-22T00:34:48.553Z,99.99
2022-10-22T00:35:48.566Z,99.99
2022-10-22T00:36:48.642Z,99.99
2022-10-22T00:37:48.582Z,99.99
2022-10-22T00:38:48.595Z,99.99
2022-10-22T00:39:48.605Z,99.99
2022-10-22T00:40:48.650Z,99.99
2022-10-22T00:41:48.631Z,99.99
2022-10-22T00:42:48.643Z,99.99
2022-10-22T00:43:48.651Z,99.99
2022-10-22T00:44:48.663Z,99.99
2022-10-22T00:45:48.673Z,99.99
2022-10-22T00:46:48.688Z,99.99
2022-10-22T00:47:48.695Z,99.99
2022-10-22T00:48:48.711Z,99.99
2022-10-22T00:49:48.720Z,99.99
2022-10-22T00:50:48.734Z,99.99
2022-10-22T00:51:48.743Z,99.99
2022-10-22T00:52:48.774Z,99.99
2022-10-22T00:53:48.764Z,99.99
2022-10-22T00:54:48.781Z,99.99
2022-10-22T00:55:48.787Z,99.99
2022-10-22T00:56:48.802Z,99.99
2022-10-22T00:57:48.815Z,99.99
2022-10-22T00:58:48.829Z,99.99
2022-10-22T00:59:48.834Z,99.99
2022-10-22T01:00:48.879Z,99.99
2022-10-22T01:01:48.869Z,99.99
2022-10-22T01:02:48.868Z,99.99
2022-10-22T01:03:48.884Z,99.99
2022-10-22T01:04:48.898Z,99.99
2022-10-22T01:05:48.902Z,99.99
2022-10-22T01:06:49.017Z,99.99
2022-10-22T01:07:48.928Z,99.99
2022-10-22T01:08:49.023Z,99.99
2022-10-22T01:09:48.950Z,99.99
2022-10-22T01:10:48.962Z,99.99
2022-10-22T01:11:48.971Z,99.99
2022-10-22T01:12:48.982Z,99.99
2022-10-22T01:13:48.997Z,99.99
2022-10-22T01:14:49.008Z,99.99
2022-10-22T01:15:49.016Z,99.99
2022-10-22T01:16:49.032Z,99.99
2022-10-22T01:17:49.039Z,99.99
2022-10-22T01:18:49.054Z,99.99
2022-10-22T01:19:49.073Z,99.99
2022-10-22T01:20:49.074Z,99.99
2022-10-22T01:21:49.082Z,99.99
2022-10-22T01:22:49.199Z,99.99
2022-10-22T01:23:49.149Z,99.99
2022-10-22T01:24:49.137Z,99.99
2022-10-22T01:25:49.132Z,99.99
2022-10-22T01:26:49.142Z,99.99
2022-10-22T01:27:49.151Z,99.99
2022-10-22T01:28:49.165Z,99.99
2022-10-22T01:29:49.188Z,99.99
2022-10-22T01:30:49.193Z,99.99
2022-10-22T01:31:49.193Z,99.99
2022-10-22T01:32:49.209Z,99.99
2022-10-22T01:33:49.214Z,99.99
2022-10-22T01:34:49.229Z,99.99
2022-10-22T01:35:49.236Z,99.99
2022-10-22T01:36:49.250Z,99.99
2022-10-22T01:37:49.370Z,99.99
2022-10-22T01:38:49.271Z,99.99
2022-10-22T01:39:49.280Z,99.99
2022-10-22T01:40:49.312Z,99.99
2022-10-22T01:41:49.304Z,99.99
2022-10-22T01:42:49.316Z,99.99
2022-10-22T01:43:49.326Z,99.99
2022-10-22T01:44:49.337Z,99.99
2022-10-22T01:45:49.347Z,99.99
2022-10-22T01:46:49.359Z,99.99
2022-10-22T01:47:49.367Z,99.99
2022-10-22T01:48:49.432Z,99.99
2022-10-22T01:49:49.389Z,99.99
2022-10-22T01:50:49.404Z,99.99
2022-10-22T01:51:49.410Z,99.99
2022-10-22T01:52:49.423Z,99.99
2022-10-22T01:53:49.434Z,99.99
2022-10-22T01:54:49.446Z,99.99
2022-10-22T01:55:49.463Z,99.99
2022-10-22T01:56:49.496Z,99.99
2022-10-22T01:57:49.476Z,99.99
2022-10-22T01:58:49.491Z,99.99
2022-10-22T01:59:49.500Z,99.99
2022-10-22T02:00:49.557Z,99.99
2022-10-22T02:01:49.523Z,99.99
2022-10-22T02:02:49.544Z,99.99
2022-10-22T02:03:49.549Z,99.99
2022-10-22T02:04:49.553Z,99.99
2022-10-22T02:05:49.562Z,99.99
2022-10-22T02:06:49.580Z,99.99
2022-10-22T02:07:49.589Z,99.99
2022-10-22T02:08:49.663Z,99.99
2022-10-22T02:09:49.713Z,99.99
2022-10-22T02:10:49.640Z,99.99
2022-10-22T02:11:49.624Z,99.99
2022-10-22T02:12:49.657Z,99.99
2022-10-22T02:13:49.652Z,99.99
2022-10-22T02:14:49.661Z,99.99
2022-10-22T02:15:49.668Z,99.99
2022-10-22T02:16:49.719Z,99.99
2022-10-22T02:17:49.691Z,99.99
2022-10-22T02:18:49.704Z,99.99
2022-10-22T02:19:49.717Z,99.99
2022-10-22T02:20:49.725Z,99.99
2022-10-22T02:21:49.735Z,99.99
2022-10-22T02:22:49.752Z,99.99
2022-10-22T02:23:49.753Z,99.99
2022-10-22T02:24:49.766Z,99.99
2022-10-22T02:25:49.777Z,99.99
2022-10-22T02:26:49.789Z,99.99
2022-10-22T02:27:49.796Z,99.99
2022-10-22T02:28:49.833Z,99.99
2022-10-22T02:29:49.815Z,99.99
2022-10-22T02:30:49.832Z,99.99
2022-10-22T02:31:49.841Z,99.99
2022-10-22T02:32:49.961Z,99.99
2022-10-22T02:33:49.861Z,99.99
2022-10-22T02:34:49.871Z,99.99
2022-10-22T02:35:49.879Z,99.99
2022-10-22T02:36:50.569Z,99.99
2022-10-22T02:37:49.904Z,99.99
2022-10-22T02:38:49.915Z,99.99
2022-10-22T02:39:49.925Z,99.99
2022-10-22T02:40:49.938Z,99.99
2022-10-22T02:41:49.949Z,99.99
2022-10-22T02:42:49.958Z,99.99
2022-10-22T02:43:49.966Z,99.99
2022-10-22T02:44:50.000Z,99.99
2022-10-22T02:45:49.986Z,99.99
2022-10-22T02:46:49.999Z,99.99
2022-10-22T02:47:50.025Z,99.99
2022-10-22T02:48:50.027Z,99.99
2022-10-22T02:49:50.031Z,99.99
2022-10-22T02:50:50.047Z,99.99
2022-10-22T02:51:50.051Z,99.99
2022-10-22T02:52:50.163Z,99.99
2022-10-22T02:53:50.076Z,99.99
2022-10-22T02:54:50.086Z,99.99
2022-10-22T02:55:50.092Z,99.99
2022-10-22T02:56:50.106Z,99.99
2022-10-22T02:57:50.114Z,99.99
2022-10-22T02:58:50.126Z,99.99
2022-10-22T02:59:50.136Z,99.99
2022-10-22T03:00:50.254Z,99.99
2022-10-22T03:01:50.157Z,99.99
2022-10-22T03:02:50.168Z,99.99
2022-10-22T03:03:50.176Z,99.99
2022-10-22T03:04:50.190Z,99.99
2022-10-22T03:05:50.200Z,99.99
2022-10-22T03:06:50.212Z,99.99
2022-10-22T03:07:50.218Z,99.99
2022-10-22T03:08:50.333Z,99.99
2022-10-22T03:09:50.242Z,99.99
2022-10-22T03:10:50.353Z,99.99
2022-10-22T03:11:50.264Z,99.99
2022-10-22T03:12:50.273Z,99.99
2022-10-22T03:13:50.285Z,99.99
2022-10-22T03:14:50.295Z,99.99
2022-10-22T03:15:50.304Z,99.99
2022-10-22T03:16:50.334Z,99.99
2022-10-22T03:17:50.327Z,99.99
2022-10-22T03:18:50.344Z,99.99
2022-10-22T03:19:50.351Z,99.99
2022-10-22T03:20:50.357Z,99.99
2022-10-22T03:21:50.384Z,99.99
2022-10-22T03:22:50.379Z,99.99
2022-10-22T03:23:50.394Z,99.99
2022-10-22T03:24:50.398Z,99.99
2022-10-22T03:25:50.503Z,99.99
2022-10-22T03:26:50.423Z,99.99
2022-10-22T03:27:50.434Z,99.99
2022-10-22T03:28:50.442Z,99.99
2022-10-22T03:29:50.454Z,99.99
2022-10-22T03:30:50.463Z,99.99
2022-10-22T03:31:50.475Z,99.99
2022-10-22T03:32:50.502Z,99.99
2022-10-22T03:33:50.543Z,99.99
2022-10-22T03:34:50.612Z,99.99
2022-10-22T03:35:50.518Z,99.99
2022-10-22T03:36:50.527Z,99.99
2022-10-22T03:37:50.539Z,99.99
2022-10-22T03:38:50.551Z,99.99
2022-10-22T03:39:50.560Z,99.99
2022-10-22T03:40:50.572Z,99.99
2022-10-22T03:41:50.585Z,99.99
2022-10-22T03:42:50.589Z,99.99
2022-10-22T03:43:50.607Z,99.99
2022-10-22T03:44:50.612Z,99.99
2022-10-22T03:45:50.628Z,99.99
2022-10-22T03:46:50.633Z,99.99
2022-10-22T03:47:50.645Z,99.99
2022-10-22T03:48:50.672Z,99.99
2022-10-22T03:49:50.666Z,99.99
2022-10-22T03:50:50.679Z,99.99
2022-10-22T03:51:50.690Z,99.99
2022-10-22T03:52:50.696Z,99.99
2022-10-22T03:53:50.711Z,99.99
2022-10-22T03:54:50.717Z,99.99
2022-10-22T03:55:50.732Z,99.99
2022-10-22T03:56:50.741Z,99.99
2022-10-22T03:57:50.756Z,99.99
2022-10-22T03:58:50.765Z,99.99
2022-10-22T03:59:50.778Z,99.99
2022-10-22T04:00:50.887Z,99.99
2022-10-22T04:01:50.795Z,99.99
2022-10-22T04:02:50.803Z,99.99
2022-10-22T04:03:50.816Z,99.99
2022-10-22T04:04:50.847Z,99.99
2022-10-22T04:05:50.840Z,99.99
2022-10-22T04:06:50.846Z,99.99
2022-10-22T04:07:50.881Z,99.99
2022-10-22T04:08:50.916Z,99.99
2022-10-22T04:09:50.880Z,99.99
2022-10-22T04:10:50.891Z,99.99
2022-10-22T04:11:50.901Z,99.99
2022-10-22T04:12:50.910Z,99.99
2022-10-22T04:13:50.924Z,99.99
2022-10-22T04:14:50.936Z,99.99
2022-10-22T04:15:50.949Z,99.99
2022-10-22T04:16:50.954Z,99.99
2022-10-22T04:17:50.969Z,99.99
2022-10-22T04:18:50.983Z,99.99
2022-10-22T04:19:50.999Z,99.99
2022-10-22T04:20:51.017Z,99.99
2022-10-22T04:21:51.010Z,99.99
2022-10-22T04:22:51.033Z,99.99
2022-10-22T04:23:51.031Z,99.99
2022-10-22T04:25:51.055Z,99.99
2022-10-22T04:26:51.062Z,99.99
2022-10-22T04:27:51.080Z,99.99
2022-10-22T04:28:51.087Z,99.99
2022-10-22T04:29:51.098Z,99.99
2022-10-22T04:30:51.108Z,99.99
2022-10-22T04:31:51.118Z,99.99
2022-10-22T04:32:51.127Z,99.99
2022-10-22T04:33:51.139Z,99.99
2022-10-22T04:34:51.147Z,99.99
2022-10-22T04:35:51.173Z,99.99
2022-10-22T04:36:51.201Z,99.99
2022-10-22T04:37:51.181Z,99.99
2022-10-22T04:38:51.188Z,99.99
2022-10-22T04:39:51.210Z,99.99
2022-10-22T04:40:51.221Z,99.99
2022-10-22T04:41:51.225Z,99.99
2022-10-22T04:42:51.231Z,99.99
2022-10-22T04:43:51.244Z,99.99
2022-10-22T04:44:51.253Z,99.99
2022-10-22T04:45:51.310Z,99.99
2022-10-22T04:46:51.274Z,99.99
2022-10-22T04:47:51.296Z,99.99
2022-10-22T04:48:51.294Z,99.99
2022-10-22T04:49:51.308Z,99.99
2022-10-22T04:50:51.326Z,99.99
2022-10-22T04:51:51.325Z,99.99
2022-10-22T04:52:51.356Z,99.99
2022-10-22T04:53:51.352Z,99.99
2022-10-22T04:54:51.362Z,99.99
2022-10-22T04:55:51.373Z,99.99
2022-10-22T04:56:51.391Z,99.99
2022-10-22T04:57:51.392Z,99.99
2022-10-22T04:58:51.401Z,99.99
2022-10-22T04:59:51.411Z,99.99
2022-10-22T05:00:51.440Z,99.99
2022-10-22T05:01:51.434Z,99.99
2022-10-22T05:02:51.441Z,99.99
2022-10-22T05:03:51.453Z,99.99
2022-10-22T05:04:51.461Z,99.99
2022-10-22T05:05:51.474Z,99.99
2022-10-22T05:06:51.482Z,99.99
2022-10-22T05:07:51.494Z,99.99
2022-10-22T05:08:51.586Z,99.99
2022-10-22T05:09:51.516Z,99.99
2022-10-22T05:10:51.526Z,99.99
2022-10-22T05:11:51.537Z,99.99
2022-10-22T05:12:51.556Z,99.99
2022-10-22T05:13:51.608Z,99.99
2022-10-22T05:14:51.563Z,99.99
2022-10-22T05:15:51.577Z,99.99
2022-10-22T05:16:51.585Z,99.99
2022-10-22T05:17:51.608Z,99.99
2022-10-22T05:18:51.609Z,99.99
2022-10-22T05:19:51.625Z,99.99
2022-10-22T05:20:51.626Z,99.99
2022-10-22T05:21:51.643Z,99.99
2022-10-22T05:22:51.648Z,99.99
2022-10-22T05:23:51.662Z,99.99
2022-10-22T05:24:51.685Z,99.99
2022-10-22T05:25:51.678Z,99.99
2022-10-22T05:26:51.690Z,99.99
2022-10-22T05:27:51.699Z,99.99
2022-10-22T05:28:51.717Z,99.99
2022-10-22T05:29:51.720Z,99.99
2022-10-22T05:30:51.731Z,99.99
2022-10-22T05:31:51.740Z,99.99
2022-10-22T05:32:51.753Z,99.99
2022-10-22T05:33:51.761Z,99.99
2022-10-22T05:34:51.771Z,99.99
2022-10-22T05:35:51.783Z,99.99
2022-10-22T05:36:51.798Z,99.99
2022-10-22T05:37:51.849Z,99.99
2022-10-22T05:38:51.812Z,99.99
2022-10-22T05:40:01.739Z,99.99
2022-10-22T05:40:51.852Z,99.99
2022-10-22T05:41:51.843Z,99.99
2022-10-22T05:42:51.876Z,99.99
2022-10-22T05:43:51.865Z,99.99
2022-10-22T05:44:51.875Z,99.99
2022-10-22T05:45:51.983Z,99.99
2022-10-22T05:46:51.916Z,99.99
2022-10-22T05:47:51.906Z,99.99
2022-10-22T05:48:51.916Z,99.99
2022-10-22T05:49:51.927Z,99.99
2022-10-22T05:50:51.936Z,99.99
2022-10-22T05:51:51.965Z,99.99
2022-10-22T05:52:51.960Z,99.99
2022-10-22T05:53:51.975Z,99.99
2022-10-22T05:54:51.986Z,99.99
2022-10-22T05:55:51.985Z,99.99
2022-10-22T05:56:52.015Z,99.99
2022-10-22T05:57:52.015Z,99.99
2022-10-22T05:58:52.153Z,99.99
2022-10-22T05:59:52.029Z,99.99
2022-10-22T06:00:52.036Z,99.99
2022-10-22T06:01:52.116Z,99.99
2022-10-22T06:02:52.063Z,99.99
2022-10-22T06:03:52.067Z,99.99
2022-10-22T06:04:52.077Z,99.99
2022-10-22T06:05:52.089Z,99.99
2022-10-22T06:06:52.108Z,99.99
2022-10-22T06:07:52.109Z,99.99
2022-10-22T06:08:52.155Z,99.99
2022-10-22T06:09:52.130Z,99.99
2022-10-22T06:10:52.237Z,99.99
2022-10-22T06:11:52.150Z,99.99
2022-10-22T06:12:52.177Z,99.99
2022-10-22T06:13:52.169Z,99.99
2022-10-22T06:14:52.179Z,99.99
2022-10-22T06:15:52.188Z,99.99
2022-10-22T06:16:52.197Z,99.99
2022-10-22T06:17:52.212Z,99.99
2022-10-22T06:18:52.221Z,99.99
2022-10-22T06:19:52.281Z,99.99
2022-10-22T06:20:52.239Z,99.99
2022-10-22T06:21:52.255Z,99.99
2022-10-22T06:22:52.257Z,99.99
2022-10-22T06:23:52.269Z,99.99
2022-10-22T06:24:52.279Z,99.99
2022-10-22T06:25:52.290Z,99.99
2022-10-22T06:26:52.301Z,99.99
2022-10-22T06:27:52.310Z,99.99
2022-10-22T06:28:52.341Z,99.99
2022-10-22T06:29:52.332Z,99.99
2022-10-22T06:30:52.340Z,99.99
2022-10-22T06:31:52.351Z,99.99
2022-10-22T06:32:52.361Z,99.99
2022-10-22T06:33:52.375Z,99.99
2022-10-22T06:34:52.380Z,99.99
2022-10-22T06:35:52.411Z,99.99
2022-10-22T06:36:52.399Z,99.99
2022-10-22T06:37:52.413Z,99.99
2022-10-22T06:38:52.433Z,99.99
2022-10-22T06:39:52.436Z,99.99
2022-10-22T06:40:52.441Z,99.99
2022-10-22T06:41:52.455Z,99.99
2022-10-22T06:42:52.468Z,99.99
2022-10-22T06:43:52.474Z,99.99
2022-10-22T06:44:52.523Z,99.99
2022-10-22T06:45:52.602Z,99.99
2022-10-22T06:46:52.505Z,99.99
2022-10-22T06:47:52.513Z,99.99
2022-10-22T06:48:52.522Z,99.99
2022-10-22T06:49:52.534Z,99.99
2022-10-22T06:50:52.542Z,99.99
2022-10-22T06:51:52.567Z,99.99
2022-10-22T06:52:52.564Z,99.99
2022-10-22T06:53:52.573Z,99.99
2022-10-22T06:54:52.581Z,99.99
2022-10-22T06:55:52.598Z,99.99
2022-10-22T06:56:52.603Z,99.99
2022-10-22T06:57:52.613Z,99.99
2022-10-22T06:58:52.623Z,99.99
2022-10-22T06:59:52.637Z,99.99
2022-10-22T07:00:52.696Z,99.99
2022-10-22T07:01:52.722Z,99.99
2022-10-22T07:02:56.357Z,99.99
2022-10-22T07:03:52.673Z,99.99
2022-10-22T07:04:52.682Z,99.99
2022-10-22T07:05:52.695Z,99.99
2022-10-22T07:06:52.706Z,99.99
2022-10-22T07:07:52.720Z,99.99
2022-10-22T07:08:52.846Z,99.99
2022-10-22T07:09:52.740Z,99.99
2022-10-22T07:10:52.742Z,99.99
2022-10-22T07:11:52.756Z,99.99
2022-10-22T07:12:52.762Z,99.99
2022-10-22T07:13:52.876Z,99.99
2022-10-22T07:14:52.783Z,99.99
2022-10-22T07:15:52.794Z,99.99
2022-10-22T07:16:52.819Z,99.99
2022-10-22T07:17:52.825Z,99.99
2022-10-22T07:18:52.861Z,99.99
2022-10-22T07:19:52.834Z,99.99
2022-10-22T07:20:52.843Z,99.99
2022-10-22T07:21:52.854Z,99.99
2022-10-22T07:22:52.862Z,99.99
2022-10-22T07:23:52.872Z,99.99
2022-10-22T07:24:52.881Z,99.99
2022-10-22T07:25:52.925Z,99.99
2022-10-22T07:26:52.902Z,99.99
2022-10-22T07:27:52.914Z,99.99
2022-10-22T07:28:52.921Z,99.99
2022-10-22T07:29:52.933Z,99.99
2022-10-22T07:30:52.943Z,99.99
2022-10-22T07:31:52.951Z,99.99
2022-10-22T07:32:52.982Z,99.99
2022-10-22T07:33:52.977Z,99.99
2022-10-22T07:34:52.983Z,99.99
2022-10-22T07:35:52.990Z,99.99
2022-10-22T07:36:53.001Z,99.99
2022-10-22T07:37:53.012Z,99.99
2022-10-22T07:38:53.072Z,99.99
2022-10-22T07:39:53.029Z,99.99
2022-10-22T07:40:53.043Z,99.99
2022-10-22T07:41:53.052Z,99.99
2022-10-22T07:42:53.061Z,99.99
2022-10-22T07:43:53.071Z,99.99
2022-10-22T07:44:53.106Z,99.99
2022-10-22T07:45:53.090Z,99.99
2022-10-22T07:46:53.109Z,99.99
2022-10-22T07:47:53.111Z,99.99
2022-10-22T07:48:53.142Z,99.99
2022-10-22T07:49:53.233Z,99.99
2022-10-22T07:50:53.153Z,99.99
2022-10-22T07:51:53.154Z,99.99
2022-10-22T07:52:54.862Z,99.99
2022-10-22T07:53:53.184Z,99.99
2022-10-22T07:54:53.193Z,99.99
2022-10-22T07:55:53.196Z,99.99
2022-10-22T07:56:53.220Z,99.99
2022-10-22T07:57:53.217Z,99.99
2022-10-22T07:58:53.287Z,99.99
2022-10-22T07:59:53.337Z,99.99
2022-10-22T08:00:53.247Z,99.99
2022-10-22T08:01:53.258Z,99.99
2022-10-22T08:02:53.272Z,99.99
2022-10-22T08:03:53.278Z,99.99
2022-10-22T08:04:53.309Z,99.99
2022-10-22T08:05:53.300Z,99.99
2022-10-22T08:06:53.310Z,99.99
2022-10-22T08:07:53.325Z,99.99
2022-10-22T08:08:53.384Z,99.99
2022-10-22T08:09:53.341Z,99.99
2022-10-22T08:10:53.355Z,99.99
2022-10-22T08:11:53.363Z,99.99
2022-10-22T08:12:53.377Z,99.99
2022-10-22T08:13:53.384Z,99.99
2022-10-22T08:14:53.398Z,99.99
2022-10-22T08:15:56.559Z,99.99
2022-10-22T08:16:53.419Z,99.99
2022-10-22T08:17:53.428Z,99.99
2022-10-22T08:18:53.440Z,99.99
2022-10-22T08:19:53.450Z,99.99
2022-10-22T08:20:53.480Z,99.99
2022-10-22T08:21:53.474Z,99.99
2022-10-22T08:22:53.485Z,99.99
2022-10-22T08:23:53.610Z,99.99
2022-10-22T08:24:53.505Z,99.99
2022-10-22T08:25:53.525Z,99.99
2022-10-22T08:26:53.529Z,99.99
2022-10-22T08:27:53.538Z,99.99
2022-10-22T08:28:53.549Z,99.99
2022-10-22T08:29:53.558Z,99.99
2022-10-22T08:30:53.594Z,99.99
2022-10-22T08:31:53.588Z,99.99
2022-10-22T08:32:54.134Z,99.99
2022-10-22T08:33:53.602Z,99.99
2022-10-22T08:34:53.618Z,99.99
2022-10-22T08:35:53.625Z,99.99
2022-10-22T08:36:53.657Z,99.99
2022-10-22T08:37:53.651Z,99.99
2022-10-22T08:38:53.663Z,99.99
2022-10-22T08:39:53.670Z,99.99
2022-10-22T08:40:53.686Z,99.99
2022-10-22T08:41:53.696Z,99.99
2022-10-22T08:42:53.707Z,99.99
2022-10-22T08:43:53.719Z,99.99
2022-10-22T08:44:53.729Z,99.99
2022-10-22T08:45:53.738Z,99.99
2022-10-22T08:46:53.751Z,99.99
2022-10-22T08:47:53.758Z,99.99
2022-10-22T08:48:53.951Z,99.99
2022-10-22T08:49:53.784Z,99.99
2022-10-22T08:50:53.795Z,99.99
2022-10-22T08:51:53.806Z,99.99
2022-10-22T08:52:53.843Z,99.99
2022-10-22T08:53:53.833Z,99.99
2022-10-22T08:54:53.841Z,99.99
2022-10-22T08:55:53.852Z,99.99
2022-10-22T08:56:53.868Z,99.99
2022-10-22T08:57:53.882Z,99.99
2022-10-22T08:58:53.889Z,99.99
2022-10-22T08:59:53.904Z,99.99
2022-10-22T09:00:54.010Z,99.99
2022-10-22T09:01:53.922Z,99.99
2022-10-22T09:02:53.933Z,99.99
2022-10-22T09:03:53.946Z,99.99
2022-10-22T09:04:53.955Z,99.99
2022-10-22T09:05:54.071Z,99.99
2022-10-22T09:06:54.487Z,99.99
2022-10-22T09:07:53.997Z,99.99
2022-10-22T09:08:54.081Z,99.99
2022-10-22T09:09:54.014Z,99.99
2022-10-22T09:10:54.034Z,99.99
2022-10-22T09:11:54.051Z,99.99
2022-10-22T09:12:54.049Z,99.99
2022-10-22T09:13:54.079Z,99.99
2022-10-22T09:14:54.074Z,99.99
2022-10-22T09:15:54.083Z,99.99
2022-10-22T09:16:54.102Z,99.99
2022-10-22T09:17:54.108Z,99.99
2022-10-22T09:18:54.123Z,99.99
2022-10-22T09:19:54.131Z,99.99
2022-10-22T09:20:54.142Z,99.99
2022-10-22T09:21:54.161Z,99.99
2022-10-22T09:22:54.168Z,99.99
2022-10-22T09:23:54.175Z,99.99
2022-10-22T09:24:54.211Z,99.99
2022-10-22T09:25:54.201Z,99.99
2022-10-22T09:26:54.220Z,99.99
2022-10-22T09:27:54.227Z,99.99
2022-10-22T09:28:54.238Z,99.99
2022-10-22T09:29:54.252Z,99.99
2022-10-22T09:30:54.335Z,99.99
2022-10-22T09:31:54.277Z,99.99
2022-10-22T09:32:54.295Z,99.99
2022-10-22T09:33:54.306Z,99.99
2022-10-22T09:34:54.313Z,99.99
2022-10-22T09:35:54.325Z,99.99
2022-10-22T09:36:54.356Z,99.99
2022-10-22T09:37:54.349Z,99.99
2022-10-22T09:38:54.376Z,99.99
2022-10-22T09:39:54.376Z,99.99
2022-10-22T09:40:54.408Z,99.99
2022-10-22T09:41:54.399Z,98.56
2022-10-22T09:42:54.417Z,99.99
2022-10-22T09:43:54.424Z,99.99
2022-10-22T09:44:54.539Z,99.99
2022-10-22T09:45:54.450Z,99.99
2022-10-22T09:46:54.475Z,99.99
2022-10-22T09:48:01.959Z,99.99
2022-10-22T09:48:54.508Z,99.99
2022-10-22T09:49:54.512Z,99.99
2022-10-22T09:50:54.516Z,99.28
2022-10-22T09:51:54.527Z,99.99
2022-10-22T09:52:54.541Z,99.99
2022-10-22T09:53:54.554Z,99.99
2022-10-22T09:54:54.667Z,99.43
2022-10-22T09:56:54.612Z,99.99
2022-10-22T09:57:54.618Z,99.99
2022-10-22T09:58:54.622Z,98.57
2022-10-22T09:59:54.634Z,93.02
2022-10-22T10:00:54.646Z,98.42
2022-10-22T10:01:54.662Z,97.94
2022-10-22T10:02:54.716Z,94.26
2022-10-22T10:03:54.688Z,90.11
2022-10-22T10:04:54.804Z,85.58
2022-10-22T10:05:54.722Z,86.82
2022-10-22T10:06:54.735Z,88.63
2022-10-22T10:07:54.744Z,85.96
2022-10-22T10:08:54.783Z,89.68
2022-10-22T10:09:54.771Z,99.99
2022-10-22T10:10:54.793Z,99.99
2022-10-22T10:11:54.799Z,99.99
2022-10-22T10:12:54.839Z,98.28
2022-10-22T10:13:54.927Z,99.99
2022-10-22T10:14:54.844Z,99.99
2022-10-22T10:15:54.853Z,99.99
2022-10-22T10:16:54.876Z,94.55
2022-10-22T10:17:54.882Z,94.55
2022-10-22T10:18:54.900Z,95.22
2022-10-22T10:19:55.715Z,95.32
2022-10-22T10:20:54.926Z,95.51
2022-10-22T10:21:54.943Z,94.74
2022-10-22T10:22:54.954Z,90.16
2022-10-22T10:23:54.970Z,93.79
2022-10-22T10:24:55.034Z,88.81
2022-10-22T10:25:54.995Z,90.25
2022-10-22T10:26:55.032Z,91.97
2022-10-22T10:27:55.024Z,94.55
2022-10-22T10:28:55.061Z,89.96
2022-10-22T10:29:55.060Z,90.77
2022-10-22T10:30:55.071Z,90.77
2022-10-22T10:31:55.083Z,92.30
2022-10-22T10:32:55.105Z,89.24
2022-10-22T10:33:55.132Z,91.30
2022-10-22T10:34:55.144Z,90.58
2022-10-22T10:35:55.172Z,95.22
2022-10-22T10:36:55.160Z,90.63
2022-10-22T10:37:55.231Z,85.41
2022-10-22T10:38:55.190Z,86.80
2022-10-22T10:39:55.207Z,93.98
2022-10-22T10:40:55.218Z,94.17
2022-10-22T10:41:55.233Z,90.30
2022-10-22T10:42:55.250Z,92.59
2022-10-22T10:43:55.262Z,95.51
2022-10-22T10:44:55.311Z,96.32
2022-10-22T10:45:55.874Z,99.09
2022-10-22T10:46:55.310Z,99.99
2022-10-22T10:47:55.320Z,98.80
2022-10-22T10:48:55.352Z,97.18
2022-10-22T10:49:55.454Z,99.99
2022-10-22T10:50:55.383Z,99.99
2022-10-22T10:51:55.383Z,99.99
2022-10-22T10:52:55.403Z,99.99
2022-10-22T10:53:55.413Z,99.99
2022-10-22T10:54:55.442Z,99.99
2022-10-22T10:55:55.441Z,99.99
2022-10-22T10:56:55.459Z,99.99
2022-10-22T10:57:55.471Z,97.33
2022-10-22T10:58:55.489Z,99.99
2022-10-22T10:59:55.502Z,99.99
2022-10-22T11:00:55.539Z,97.80
2022-10-22T11:01:55.590Z,94.84
2022-10-22T11:03:55.565Z,85.32
2022-10-22T11:04:55.581Z,92.44
2022-10-22T11:05:55.592Z,98.76
2022-10-22T11:07:05.901Z,94.36
2022-10-22T11:07:56.302Z,92.21
2022-10-22T11:08:55.681Z,95.51
2022-10-22T11:09:55.656Z,90.91
2022-10-22T11:10:55.673Z,91.87
2022-10-22T11:11:55.689Z,91.39
2022-10-22T11:12:55.807Z,91.05
2022-10-22T11:13:55.723Z,90.67
2022-10-22T11:14:55.736Z,87.90
2022-10-22T11:15:55.770Z,92.11
2022-10-22T11:16:55.784Z,89.15
2022-10-22T11:17:55.781Z,92.97
2022-10-22T11:18:55.803Z,97.71
2022-10-22T11:19:59.835Z,94.45
2022-10-22T11:20:55.832Z,99.99
2022-10-22T11:21:55.843Z,99.96
2022-10-22T11:23:18.077Z,95.31
2022-10-22T11:23:55.876Z,91.77
2022-10-22T11:24:55.893Z,90.63
2022-10-22T11:25:55.908Z,94.60
2022-10-22T11:26:55.926Z,94.26
2022-10-22T11:27:59.762Z,84.06
2022-10-22T11:28:55.976Z,79.28
2022-10-22T11:29:55.976Z,87.27
2022-10-22T11:30:55.995Z,91.01
2022-10-22T11:31:56.005Z,92.35
2022-10-22T11:32:56.041Z,93.40
2022-10-22T11:34:10.050Z,81.63
2022-10-22T11:34:56.055Z,83.54
2022-10-22T11:35:56.067Z,80.43
2022-10-22T11:36:56.094Z,89.62
2022-10-22T11:37:56.101Z,81.38
2022-10-22T11:38:56.118Z,80.71
2022-10-22T11:39:56.132Z,87.27
2022-10-22T11:40:56.149Z,93.26
2022-10-22T11:41:56.164Z,89.04
2022-10-22T11:42:56.182Z,74.24
2022-10-22T11:43:56.198Z,80.76
2022-10-22T11:44:56.220Z,80.76
2022-10-22T11:45:56.230Z,69.10
2022-10-22T11:46:56.254Z,71.21
2022-10-22T11:47:56.260Z,68.18
2022-10-22T11:48:56.295Z,69.52
2022-10-22T11:49:56.326Z,62.77
2022-10-22T11:50:56.309Z,74.31
2022-10-22T11:51:56.326Z,79.24
2022-10-22T11:52:56.346Z,68.40
2022-10-22T11:53:56.362Z,64.53
2022-10-22T11:54:56.376Z,61.30
2022-10-22T11:55:56.395Z,61.30
2022-10-22T11:56:56.406Z,62.68
2022-10-22T11:57:56.427Z,65.65
2022-10-22T11:58:56.441Z,67.29
2022-10-22T11:59:56.463Z,61.81
2022-10-22T12:00:56.479Z,62.99
2022-10-22T12:01:56.493Z,67.67
2022-10-22T12:02:56.508Z,67.67
2022-10-22T12:03:56.531Z,70.99
2022-10-22T12:04:56.627Z,71.95
2022-10-22T12:05:56.572Z,76.50
2022-10-22T12:06:56.575Z,73.14
2022-10-22T12:07:56.595Z,64.79
2022-10-22T12:08:56.744Z,63.48
2022-10-22T12:09:56.631Z,64.95
2022-10-22T12:10:56.647Z,63.51
2022-10-22T12:11:56.672Z,76.27
2022-10-22T12:12:56.678Z,80.55
2022-10-22T12:13:56.698Z,84.71
2022-10-22T12:14:56.716Z,70.13
2022-10-22T12:15:56.737Z,65.33
2022-10-22T12:16:57.673Z,66.03
2022-10-22T12:17:56.792Z,63.57
2022-10-22T12:18:56.784Z,60.31
2022-10-22T12:19:58.578Z,59.73
2022-10-22T12:20:56.840Z,60.05
2022-10-22T12:21:56.941Z,60.34
2022-10-22T12:22:56.855Z,63.51
2022-10-22T12:23:56.875Z,63.22
2022-10-22T12:24:56.898Z,61.58
2022-10-22T12:25:56.913Z,60.14
2022-10-22T12:26:57.028Z,57.36
2022-10-22T12:27:56.946Z,59.09
2022-10-22T12:28:56.972Z,63.79
2022-10-22T12:29:56.981Z,63.12
2022-10-22T12:30:57.001Z,61.91
2022-10-22T12:31:57.018Z,66.30
2022-10-22T12:32:57.034Z,62.64
2022-10-22T12:33:57.056Z,64.85
2022-10-22T12:34:57.076Z,67.00
2022-10-22T12:35:57.090Z,65.30
2022-10-22T12:36:57.130Z,66.03
2022-10-22T12:37:57.129Z,68.08
2022-10-22T12:38:57.148Z,63.19
2022-10-22T12:39:57.165Z,58.77
2022-10-22T12:40:57.359Z,68.12
2022-10-22T12:41:57.209Z,79.82
2022-10-22T12:42:57.308Z,74.83
2022-10-22T12:43:57.239Z,77.17
2022-10-22T12:44:57.256Z,76.14
2022-10-22T12:45:57.275Z,80.35
2022-10-22T12:46:57.312Z,72.81
2022-10-22T12:47:57.314Z,72.27
2022-10-22T12:48:57.331Z,73.07
2022-10-22T12:49:57.358Z,70.42
2022-10-22T12:50:57.387Z,65.72
2022-10-22T12:51:57.389Z,64.09
2022-10-22T12:52:57.419Z,64.85
2022-10-22T12:53:57.425Z,63.70
2022-10-22T12:54:57.441Z,66.29
2022-10-22T12:55:57.459Z,63.32